createdAt,value
2017-04-29T00:01:15.482Z,22.81
2017-04-29T00:02:14.898Z,22.83
2017-04-29T00:03:15.142Z,22.83
2017-04-29T00:04:14.772Z,22.8
2017-04-29T00:05:14.713Z,22.76
2017-04-29T00:06:14.945Z,22.81
2017-04-29T00:07:14.890Z,22.81
2017-04-29T00:08:14.821Z,22.9
2017-04-29T00:09:14.756Z,22.78
2017-04-29T00:10:14.700Z,22.72
2017-04-29T00:11:14.630Z,22.72
2017-04-29T00:12:14.602Z,22.75
2017-04-29T00:13:14.511Z,22.75
2017-04-29T00:14:13.859Z,22.78
2017-04-29T00:15:14.079Z,22.81
2017-04-29T00:16:14.319Z,22.8
2017-04-29T00:17:13.956Z,22.76
2017-04-29T00:18:14.194Z,22.75
2017-04-29T00:19:14.129Z,22.83
2017-04-29T00:20:14.068Z,22.8
2017-04-29T00:21:14.006Z,22.75
2017-04-29T00:22:13.939Z,22.75
2017-04-29T00:23:13.878Z,22.75
2017-04-29T00:24:13.816Z,22.76
2017-04-29T00:25:13.753Z,22.78
2017-04-29T00:26:13.692Z,22.78
2017-04-29T00:27:13.626Z,22.83
2017-04-29T00:28:13.565Z,22.81
2017-04-29T00:29:13.501Z,22.76
2017-04-29T00:30:13.437Z,22.76
2017-04-29T00:31:13.080Z,22.75
2017-04-29T00:32:13.616Z,22.8
2017-04-29T00:33:13.253Z,22.78
2017-04-29T00:34:13.189Z,22.8
2017-04-29T00:35:13.222Z,22.72
2017-04-29T00:36:12.760Z,22.76
2017-04-29T00:37:13.001Z,22.8
2017-04-29T00:38:12.943Z,22.78
2017-04-29T00:39:12.873Z,22.84
2017-04-29T00:40:12.960Z,22.7
2017-04-29T00:41:12.446Z,22.81
2017-04-29T00:42:12.682Z,22.87
2017-04-29T00:43:12.324Z,22.8
2017-04-29T00:44:12.271Z,22.8
2017-04-29T00:45:12.197Z,22.85
2017-04-29T00:46:12.445Z,22.8
2017-04-29T00:47:12.375Z,22.76
2017-04-29T00:48:12.307Z,22.8
2017-04-29T00:49:11.944Z,22.85
2017-04-29T00:50:12.185Z,22.76
2017-04-29T00:51:12.123Z,22.83
2017-04-29T00:52:12.066Z,22.84
2017-04-29T00:53:11.997Z,22.75
2017-04-29T00:54:11.638Z,22.83
2017-04-29T00:55:11.869Z,22.81
2017-04-29T00:56:11.823Z,22.8
2017-04-29T00:57:11.744Z,22.78
2017-04-29T00:58:11.691Z,22.81
2017-04-29T00:59:11.317Z,22.76
2017-04-29T01:00:11.565Z,22.78
2017-04-29T01:01:11.492Z,22.8
2017-04-29T01:02:11.430Z,22.8
2017-04-29T01:03:11.366Z,22.69
2017-04-29T01:04:11.304Z,22.76
2017-04-29T01:05:11.244Z,22.76
2017-04-29T01:06:11.177Z,22.84
2017-04-29T01:07:10.515Z,22.78
2017-04-29T01:08:11.059Z,22.76
2017-04-29T01:09:10.999Z,22.76
2017-04-29T01:10:10.937Z,22.78
2017-04-29T01:11:10.564Z,22.8
2017-04-29T01:12:10.810Z,22.78
2017-04-29T01:13:10.738Z,22.69
2017-04-29T01:14:10.387Z,22.75
2017-04-29T01:15:10.324Z,22.76
2017-04-29T01:16:10.552Z,22.85
2017-04-29T01:17:10.488Z,22.75
2017-04-29T01:18:10.424Z,22.81
2017-04-29T01:19:10.064Z,22.8
2017-04-29T01:20:10.316Z,22.78
2017-04-29T01:21:10.237Z,22.75
2017-04-29T01:22:10.171Z,22.72
2017-04-29T01:23:10.117Z,22.78
2017-04-29T01:24:10.048Z,22.76
2017-04-29T01:25:09.988Z,22.8
2017-04-29T01:26:09.923Z,22.73
2017-04-29T01:27:09.563Z,22.78
2017-04-29T01:28:09.797Z,22.76
2017-04-29T01:29:09.732Z,22.75
2017-04-29T01:30:09.672Z,22.81
2017-04-29T01:31:09.608Z,22.78
2017-04-29T01:32:09.546Z,22.8
2017-04-29T01:33:09.184Z,22.84
2017-04-29T01:34:09.421Z,22.84
2017-04-29T01:35:09.359Z,22.85
2017-04-29T01:36:09.307Z,22.84
2017-04-29T01:37:09.244Z,22.81
2017-04-29T01:38:09.180Z,22.76
2017-04-29T01:39:09.114Z,22.8
2017-04-29T01:40:09.043Z,22.75
2017-04-29T01:41:08.984Z,22.78
2017-04-29T01:42:08.622Z,22.8
2017-04-29T01:43:08.857Z,22.78
2017-04-29T01:44:08.494Z,22.72
2017-04-29T01:45:08.736Z,22.88
2017-04-29T01:46:08.671Z,22.83
2017-04-29T01:47:08.605Z,22.73
2017-04-29T01:48:08.542Z,22.8
2017-04-29T01:49:08.480Z,22.88
2017-04-29T01:50:08.418Z,22.72
2017-04-29T01:51:08.352Z,22.75
2017-04-29T01:52:08.301Z,22.73
2017-04-29T01:53:08.227Z,22.8
2017-04-29T01:54:07.868Z,22.78
2017-04-29T01:55:08.112Z,22.75
2017-04-29T01:56:08.041Z,22.75
2017-04-29T01:57:07.994Z,22.84
2017-04-29T01:58:07.614Z,22.84
2017-04-29T01:59:07.853Z,22.84
2017-04-29T02:00:07.488Z,22.72
2017-04-29T02:01:07.729Z,22.73
2017-04-29T02:02:07.665Z,22.8
2017-04-29T02:03:07.605Z,22.78
2017-04-29T02:04:07.248Z,22.75
2017-04-29T02:05:07.473Z,22.7
2017-04-29T02:06:07.413Z,22.83
2017-04-29T02:07:07.395Z,22.73
2017-04-29T02:08:07.288Z,22.76
2017-04-29T02:09:07.225Z,22.83
2017-04-29T02:10:07.163Z,22.72
2017-04-29T02:11:07.100Z,22.85
2017-04-29T02:12:07.037Z,22.72
2017-04-29T02:13:06.972Z,22.76
2017-04-29T02:14:06.911Z,22.72
2017-04-29T02:15:06.848Z,22.8
2017-04-29T02:16:06.782Z,22.84
2017-04-29T02:17:06.725Z,22.81
2017-04-29T02:18:06.664Z,22.73
2017-04-29T02:19:06.597Z,22.75
2017-04-29T02:20:06.681Z,22.75
2017-04-29T02:21:06.470Z,22.75
2017-04-29T02:22:06.408Z,22.84
2017-04-29T02:23:06.348Z,22.78
2017-04-29T02:24:06.284Z,22.72
2017-04-29T02:25:06.218Z,22.72
2017-04-29T02:26:06.160Z,22.85
2017-04-29T02:27:06.098Z,22.72
2017-04-29T02:28:05.730Z,22.76
2017-04-29T02:29:05.669Z,22.84
2017-04-29T02:30:05.907Z,22.84
2017-04-29T02:31:05.842Z,22.8
2017-04-29T02:32:05.782Z,22.78
2017-04-29T02:33:05.722Z,22.73
2017-04-29T02:34:05.654Z,22.73
2017-04-29T02:35:05.591Z,22.8
2017-04-29T02:36:05.231Z,22.75
2017-04-29T02:37:05.473Z,22.75
2017-04-29T02:38:05.418Z,22.83
2017-04-29T02:39:05.347Z,22.81
2017-04-29T02:40:05.288Z,22.75
2017-04-29T02:41:05.226Z,22.84
2017-04-29T02:42:05.159Z,22.73
2017-04-29T02:43:05.103Z,22.81
2017-04-29T02:44:04.733Z,22.84
2017-04-29T02:45:04.661Z,22.8
2017-04-29T02:46:04.909Z,22.73
2017-04-29T02:47:04.836Z,22.81
2017-04-29T02:48:04.798Z,22.76
2017-04-29T02:49:04.713Z,22.85
2017-04-29T02:50:04.654Z,22.72
2017-04-29T02:51:04.599Z,22.75
2017-04-29T02:52:04.233Z,22.83
2017-04-29T02:53:04.519Z,22.72
2017-04-29T02:54:04.407Z,22.78
2017-04-29T02:55:04.349Z,22.78
2017-04-29T02:56:04.272Z,22.73
2017-04-29T02:57:04.208Z,22.8
2017-04-29T02:58:04.152Z,22.83
2017-04-29T02:59:03.799Z,22.81
2017-04-29T03:00:04.031Z,22.78
2017-04-29T03:01:03.957Z,22.81
2017-04-29T03:02:03.900Z,22.7
2017-04-29T03:03:03.835Z,22.78
2017-04-29T03:04:03.769Z,22.78
2017-04-29T03:05:03.720Z,22.73
2017-04-29T03:06:03.345Z,22.78
2017-04-29T03:07:03.579Z,22.81
2017-04-29T03:08:03.537Z,22.73
2017-04-29T03:09:03.461Z,22.75
2017-04-29T03:10:03.395Z,22.75
2017-04-29T03:11:03.029Z,22.84
2017-04-29T03:12:03.267Z,22.78
2017-04-29T03:13:03.208Z,22.75
2017-04-29T03:14:03.145Z,22.7
2017-04-29T03:15:03.089Z,22.84
2017-04-29T03:16:03.015Z,22.73
2017-04-29T03:17:02.965Z,22.72
2017-04-29T03:18:02.911Z,22.78
2017-04-29T03:19:02.844Z,22.81
2017-04-29T03:20:02.764Z,22.81
2017-04-29T03:21:02.711Z,22.8
2017-04-29T03:22:02.657Z,22.78
2017-04-29T03:23:02.595Z,22.76
2017-04-29T03:24:02.533Z,22.81
2017-04-29T03:25:02.450Z,22.83
2017-04-29T03:26:02.399Z,22.83
2017-04-29T03:27:02.323Z,22.69
2017-04-29T03:28:02.269Z,22.78
2017-04-29T03:29:02.222Z,22.8
2017-04-29T03:30:02.138Z,22.73
2017-04-29T03:31:02.077Z,22.76
2017-04-29T03:32:02.013Z,22.84
2017-04-29T03:33:01.952Z,22.83
2017-04-29T03:34:01.892Z,22.87
2017-04-29T03:35:01.855Z,22.78
2017-04-29T03:36:01.761Z,22.75
2017-04-29T03:37:01.709Z,22.76
2017-04-29T03:38:01.639Z,22.75
2017-04-29T03:39:01.573Z,22.84
2017-04-29T03:40:01.510Z,22.73
2017-04-29T03:41:01.455Z,22.78
2017-04-29T03:42:01.384Z,22.75
2017-04-29T03:43:01.319Z,22.78
2017-04-29T03:44:01.259Z,22.73
2017-04-29T03:45:01.195Z,22.78
2017-04-29T03:46:01.133Z,22.8
2017-04-29T03:47:01.074Z,22.8
2017-04-29T03:48:01.010Z,22.73
2017-04-29T03:49:00.945Z,22.78
2017-04-29T03:50:00.882Z,22.84
2017-04-29T03:51:00.518Z,22.84
2017-04-29T03:52:00.755Z,22.81
2017-04-29T03:53:00.698Z,22.81
2017-04-29T03:54:00.630Z,22.8
2017-04-29T03:55:00.570Z,22.75
2017-04-29T03:56:00.506Z,22.8
2017-04-29T03:57:00.442Z,22.72
2017-04-29T03:58:00.378Z,22.84
2017-04-29T03:59:00.316Z,22.8
2017-04-29T04:00:00.259Z,22.73
2017-04-29T04:01:00.189Z,22.73
2017-04-29T04:02:00.136Z,22.84
2017-04-29T04:03:00.066Z,22.78
2017-04-29T04:04:00.003Z,22.73
2017-04-29T04:04:59.941Z,22.75
2017-04-29T04:05:59.874Z,22.78
2017-04-29T04:06:59.812Z,22.81
2017-04-29T04:07:59.752Z,22.84
2017-04-29T04:08:59.688Z,22.8
2017-04-29T04:09:59.628Z,22.81
2017-04-29T04:10:59.562Z,22.78
2017-04-29T04:11:59.509Z,22.69
2017-04-29T04:12:59.151Z,22.78
2017-04-29T04:13:59.375Z,22.73
2017-04-29T04:14:59.310Z,22.78
2017-04-29T04:15:59.248Z,22.78
2017-04-29T04:16:59.183Z,22.75
2017-04-29T04:17:59.123Z,22.73
2017-04-29T04:18:59.067Z,22.73
2017-04-29T04:19:59.001Z,22.75
2017-04-29T04:20:58.933Z,22.81
2017-04-29T04:21:58.871Z,22.78
2017-04-29T04:22:58.808Z,22.76
2017-04-29T04:23:58.747Z,22.73
2017-04-29T04:24:58.685Z,22.76
2017-04-29T04:25:58.618Z,22.72
2017-04-29T04:26:58.555Z,22.73
2017-04-29T04:27:58.506Z,22.72
2017-04-29T04:28:58.431Z,22.76
2017-04-29T04:29:58.387Z,22.72
2017-04-29T04:30:58.304Z,22.76
2017-04-29T04:31:58.246Z,22.8
2017-04-29T04:32:58.180Z,22.8
2017-04-29T04:33:58.124Z,22.75
2017-04-29T04:34:58.055Z,22.75
2017-04-29T04:35:57.989Z,22.73
2017-04-29T04:36:57.927Z,22.73
2017-04-29T04:37:57.868Z,22.78
2017-04-29T04:38:57.803Z,22.76
2017-04-29T04:39:57.746Z,22.75
2017-04-29T04:40:57.676Z,22.83
2017-04-29T04:41:57.609Z,22.76
2017-04-29T04:42:57.553Z,22.83
2017-04-29T04:43:57.489Z,22.72
2017-04-29T04:44:57.435Z,22.84
2017-04-29T04:45:57.362Z,22.78
2017-04-29T04:46:57.300Z,22.78
2017-04-29T04:47:57.245Z,22.7
2017-04-29T04:48:57.178Z,22.78
2017-04-29T04:49:57.119Z,22.85
2017-04-29T04:50:57.198Z,22.81
2017-04-29T04:51:56.986Z,22.73
2017-04-29T04:52:56.924Z,22.81
2017-04-29T04:53:56.859Z,22.73
2017-04-29T04:54:56.801Z,22.84
2017-04-29T04:55:56.587Z,22.73
2017-04-29T04:56:56.669Z,22.85
2017-04-29T04:57:56.620Z,22.73
2017-04-29T04:58:56.545Z,22.8
2017-04-29T04:59:56.485Z,22.84
2017-04-29T05:00:56.420Z,22.7
2017-04-29T05:01:56.357Z,22.72
2017-04-29T05:02:56.298Z,22.75
2017-04-29T05:03:56.232Z,22.8
2017-04-29T05:04:56.169Z,22.75
2017-04-29T05:05:56.106Z,22.84
2017-04-29T05:06:56.045Z,22.72
2017-04-29T05:07:55.981Z,22.75
2017-04-29T05:08:55.918Z,22.72
2017-04-29T05:09:55.855Z,22.76
2017-04-29T05:10:55.801Z,22.75
2017-04-29T05:11:55.728Z,22.75
2017-04-29T05:12:55.671Z,22.72
2017-04-29T05:13:55.630Z,22.75
2017-04-29T05:14:55.538Z,22.75
2017-04-29T05:15:55.477Z,22.84
2017-04-29T05:16:55.416Z,22.76
2017-04-29T05:17:55.352Z,22.75
2017-04-29T05:18:54.994Z,22.83
2017-04-29T05:19:54.927Z,22.75
2017-04-29T05:20:55.163Z,22.75
2017-04-29T05:21:55.104Z,22.84
2017-04-29T05:22:55.037Z,22.81
2017-04-29T05:23:54.978Z,22.8
2017-04-29T05:24:54.912Z,22.84
2017-04-29T05:25:54.848Z,22.78
2017-04-29T05:26:54.790Z,22.76
2017-04-29T05:27:54.727Z,22.75
2017-04-29T05:28:54.662Z,22.8
2017-04-29T05:29:54.607Z,22.85
2017-04-29T05:30:54.536Z,22.76
2017-04-29T05:31:54.472Z,22.78
2017-04-29T05:32:54.411Z,22.83
2017-04-29T05:33:54.349Z,22.78
2017-04-29T05:34:54.287Z,22.76
2017-04-29T05:35:54.219Z,22.72
2017-04-29T05:36:54.160Z,22.76
2017-04-29T05:37:54.144Z,22.78
2017-04-29T05:38:54.035Z,22.8
2017-04-29T05:39:53.967Z,22.8
2017-04-29T05:40:53.906Z,22.72
2017-04-29T05:41:53.845Z,22.75
2017-04-29T05:42:53.782Z,22.85
2017-04-29T05:43:53.721Z,22.76
2017-04-29T05:44:53.654Z,22.8
2017-04-29T05:45:53.604Z,22.84
2017-04-29T05:46:53.534Z,22.78
2017-04-29T05:47:53.472Z,22.84
2017-04-29T05:48:53.409Z,22.8
2017-04-29T05:49:53.344Z,22.87
2017-04-29T05:50:53.276Z,22.78
2017-04-29T05:51:53.215Z,22.81
2017-04-29T05:52:53.155Z,22.73
2017-04-29T05:53:53.090Z,22.76
2017-04-29T05:54:53.029Z,22.81
2017-04-29T05:55:52.964Z,22.72
2017-04-29T05:56:52.902Z,22.76
2017-04-29T05:57:52.842Z,22.84
2017-04-29T05:58:52.778Z,22.76
2017-04-29T05:59:52.714Z,22.84
2017-04-29T06:00:52.651Z,22.7
2017-04-29T06:01:52.285Z,22.83
2017-04-29T06:02:52.228Z,22.78
2017-04-29T06:03:52.464Z,22.75
2017-04-29T06:04:52.398Z,22.78
2017-04-29T06:05:52.336Z,22.76
2017-04-29T06:06:52.273Z,22.76
2017-04-29T06:07:52.213Z,22.87
2017-04-29T06:08:52.152Z,22.73
2017-04-29T06:09:52.084Z,22.84
2017-04-29T06:10:52.022Z,22.83
2017-04-29T06:11:51.964Z,22.8
2017-04-29T06:12:51.902Z,22.75
2017-04-29T06:13:51.836Z,22.75
2017-04-29T06:14:51.769Z,22.84
2017-04-29T06:15:51.707Z,22.85
2017-04-29T06:16:51.645Z,22.7
2017-04-29T06:17:51.588Z,22.72
2017-04-29T06:18:51.524Z,22.78
2017-04-29T06:19:51.456Z,22.85
2017-04-29T06:20:51.394Z,22.81
2017-04-29T06:21:51.329Z,22.73
2017-04-29T06:22:51.269Z,22.75
2017-04-29T06:23:51.210Z,22.75
2017-04-29T06:24:51.148Z,22.75
2017-04-29T06:25:51.078Z,22.73
2017-04-29T06:26:51.017Z,22.84
2017-04-29T06:27:50.958Z,22.75
2017-04-29T06:28:50.891Z,22.84
2017-04-29T06:29:50.829Z,22.69
2017-04-29T06:30:50.765Z,22.84
2017-04-29T06:31:50.702Z,22.81
2017-04-29T06:32:50.646Z,22.75
2017-04-29T06:33:50.578Z,22.87
2017-04-29T06:34:50.513Z,22.75
2017-04-29T06:35:50.450Z,22.78
2017-04-29T06:36:50.389Z,22.76
2017-04-29T06:37:50.353Z,22.83
2017-04-29T06:38:50.265Z,22.7
2017-04-29T06:39:50.200Z,22.8
2017-04-29T06:40:50.136Z,22.78
2017-04-29T06:41:50.078Z,22.87
2017-04-29T06:42:50.009Z,22.76
2017-04-29T06:43:49.948Z,22.81
2017-04-29T06:44:49.885Z,22.76
2017-04-29T06:45:49.824Z,22.85
2017-04-29T06:46:49.761Z,22.8
2017-04-29T06:47:49.701Z,22.76
2017-04-29T06:48:49.335Z,22.72
2017-04-29T06:49:49.572Z,22.81
2017-04-29T06:50:49.521Z,22.72
2017-04-29T06:51:49.447Z,22.76
2017-04-29T06:52:49.384Z,22.75
2017-04-29T06:53:49.320Z,22.78
2017-04-29T06:54:49.263Z,22.84
2017-04-29T06:55:49.195Z,22.85
2017-04-29T06:56:49.133Z,22.78
2017-04-29T06:57:49.067Z,22.78
2017-04-29T06:58:49.007Z,22.75
2017-04-29T06:59:48.943Z,22.84
2017-04-29T07:00:48.879Z,22.75
2017-04-29T07:01:48.817Z,22.75
2017-04-29T07:02:48.759Z,22.81
2017-04-29T07:03:48.694Z,22.73
2017-04-29T07:04:48.628Z,22.78
2017-04-29T07:05:48.566Z,22.81
2017-04-29T07:06:48.502Z,22.8
2017-04-29T07:07:48.441Z,22.75
2017-04-29T07:08:48.381Z,22.8
2017-04-29T07:09:48.321Z,22.83
2017-04-29T07:10:48.250Z,22.87
2017-04-29T07:11:48.187Z,22.8
2017-04-29T07:12:48.127Z,22.81
2017-04-29T07:13:48.068Z,22.83
2017-04-29T07:14:47.999Z,22.81
2017-04-29T07:15:47.935Z,22.83
2017-04-29T07:16:47.875Z,22.83
2017-04-29T07:17:47.513Z,22.81
2017-04-29T07:18:47.754Z,22.81
2017-04-29T07:19:47.686Z,22.87
2017-04-29T07:20:47.623Z,22.81
2017-04-29T07:21:47.561Z,22.8
2017-04-29T07:22:47.498Z,22.78
2017-04-29T07:23:47.438Z,22.84
2017-04-29T07:24:47.373Z,22.8
2017-04-29T07:25:47.320Z,22.83
2017-04-29T07:26:47.248Z,22.83
2017-04-29T07:27:47.233Z,22.83
2017-04-29T07:28:46.825Z,22.8
2017-04-29T07:29:47.058Z,22.83
2017-04-29T07:30:46.997Z,22.84
2017-04-29T07:31:46.931Z,22.81
2017-04-29T07:32:46.875Z,22.83
2017-04-29T07:33:46.811Z,22.81
2017-04-29T07:34:46.744Z,22.87
2017-04-29T07:35:46.682Z,22.8
2017-04-29T07:36:46.636Z,22.81
2017-04-29T07:37:46.558Z,22.83
2017-04-29T07:38:46.495Z,22.87
2017-04-29T07:39:46.430Z,22.84
2017-04-29T07:40:46.072Z,22.84
2017-04-29T07:41:46.304Z,22.88
2017-04-29T07:42:46.244Z,22.81
2017-04-29T07:43:46.181Z,22.84
2017-04-29T07:44:46.116Z,22.83
2017-04-29T07:45:46.056Z,22.81
2017-04-29T07:46:45.990Z,22.81
2017-04-29T07:47:45.935Z,22.78
2017-04-29T07:48:45.867Z,22.83
2017-04-29T07:49:45.809Z,22.78
2017-04-29T07:50:45.741Z,22.78
2017-04-29T07:51:45.676Z,22.8
2017-04-29T07:52:45.614Z,22.8
2017-04-29T07:53:45.552Z,22.83
2017-04-29T07:54:45.490Z,22.84
2017-04-29T07:55:45.126Z,22.83
2017-04-29T07:56:45.363Z,22.8
2017-04-29T07:57:45.302Z,22.8
2017-04-29T07:58:45.238Z,22.83
2017-04-29T07:59:45.175Z,22.83
2017-04-29T08:00:45.112Z,22.78
2017-04-29T08:01:45.051Z,22.78
2017-04-29T08:02:44.691Z,22.83
2017-04-29T08:03:44.925Z,22.83
2017-04-29T08:04:44.872Z,22.81
2017-04-29T08:05:44.800Z,22.87
2017-04-29T08:06:44.436Z,22.84
2017-04-29T08:07:44.685Z,22.85
2017-04-29T08:08:44.612Z,22.87
2017-04-29T08:09:44.547Z,22.83
2017-04-29T08:10:44.485Z,22.84
2017-04-29T08:11:44.457Z,22.85
2017-04-29T08:12:44.367Z,22.78
2017-04-29T08:13:44.299Z,22.83
2017-04-29T08:14:44.234Z,22.84
2017-04-29T08:15:44.174Z,22.83
2017-04-29T08:16:44.105Z,22.87
2017-04-29T08:17:43.748Z,22.81
2017-04-29T08:18:43.683Z,22.81
2017-04-29T08:19:43.621Z,22.8
2017-04-29T08:20:43.558Z,22.83
2017-04-29T08:21:43.794Z,22.84
2017-04-29T08:22:43.735Z,22.83
2017-04-29T08:23:43.671Z,22.8
2017-04-29T08:24:43.627Z,22.78
2017-04-29T08:25:43.543Z,22.8
2017-04-29T08:26:43.481Z,22.83
2017-04-29T08:27:43.433Z,22.78
2017-04-29T08:28:43.356Z,22.88
2017-04-29T08:29:43.290Z,22.8
2017-04-29T08:30:43.227Z,22.81
2017-04-29T08:31:42.866Z,22.84
2017-04-29T08:32:43.103Z,22.83
2017-04-29T08:33:43.043Z,22.84
2017-04-29T08:34:42.978Z,22.81
2017-04-29T08:35:42.915Z,22.8
2017-04-29T08:36:42.855Z,22.83
2017-04-29T08:37:42.490Z,22.8
2017-04-29T08:38:42.727Z,22.83
2017-04-29T08:39:42.673Z,22.84
2017-04-29T08:40:42.605Z,22.87
2017-04-29T08:41:42.539Z,22.87
2017-04-29T08:42:42.474Z,22.8
2017-04-29T08:43:42.414Z,22.8
2017-04-29T08:44:42.350Z,22.81
2017-04-29T08:45:42.288Z,22.81
2017-04-29T08:46:42.225Z,22.87
2017-04-29T08:47:41.863Z,22.84
2017-04-29T08:48:42.100Z,22.81
2017-04-29T08:49:42.038Z,22.81
2017-04-29T08:50:41.674Z,22.8
2017-04-29T08:51:41.911Z,22.8
2017-04-29T08:52:41.852Z,22.83
2017-04-29T08:53:41.487Z,22.84
2017-04-29T08:54:41.722Z,22.84
2017-04-29T08:55:41.659Z,22.8
2017-04-29T08:56:41.598Z,22.8
2017-04-29T08:57:41.242Z,22.83
2017-04-29T08:58:41.177Z,22.83
2017-04-29T08:59:41.109Z,22.9
2017-04-29T09:00:41.349Z,22.9
2017-04-29T09:01:41.287Z,22.78
2017-04-29T09:02:41.223Z,22.78
2017-04-29T09:03:41.163Z,22.83
2017-04-29T09:04:41.095Z,22.84
2017-04-29T09:05:41.032Z,22.83
2017-04-29T09:06:40.973Z,22.93
2017-04-29T09:07:40.609Z,22.81
2017-04-29T09:08:40.548Z,22.93
2017-04-29T09:09:40.781Z,22.8
2017-04-29T09:10:40.719Z,22.88
2017-04-29T09:11:40.367Z,22.81
2017-04-29T09:12:40.597Z,22.83
2017-04-29T09:13:40.533Z,22.8
2017-04-29T09:14:40.469Z,22.84
2017-04-29T09:15:40.406Z,22.91
2017-04-29T09:16:40.342Z,22.8
2017-04-29T09:17:40.282Z,22.76
2017-04-29T09:18:40.219Z,22.83
2017-04-29T09:19:40.159Z,22.81
2017-04-29T09:20:39.794Z,22.84
2017-04-29T09:21:40.030Z,22.84
2017-04-29T09:22:39.365Z,22.84
2017-04-29T09:23:39.907Z,22.8
2017-04-29T09:24:39.844Z,22.8
2017-04-29T09:25:39.785Z,22.78
2017-04-29T09:26:39.420Z,22.8
2017-04-29T09:27:39.656Z,22.85
2017-04-29T09:28:39.295Z,22.83
2017-04-29T09:29:39.527Z,22.84
2017-04-29T09:30:39.467Z,22.8
2017-04-29T09:31:39.405Z,22.8
2017-04-29T09:32:39.342Z,22.88
2017-04-29T09:33:39.279Z,22.88
2017-04-29T09:34:38.916Z,22.91
2017-04-29T09:35:39.153Z,22.87
2017-04-29T09:36:39.095Z,22.83
2017-04-29T09:37:39.030Z,22.83
2017-04-29T09:38:38.964Z,22.87
2017-04-29T09:39:38.902Z,22.94
2017-04-29T09:40:38.843Z,22.84
2017-04-29T09:41:38.777Z,22.88
2017-04-29T09:42:38.716Z,22.84
2017-04-29T09:43:38.654Z,22.83
2017-04-29T09:44:38.588Z,22.83
2017-04-29T09:45:38.525Z,22.85
2017-04-29T09:46:38.464Z,22.81
2017-04-29T09:47:38.402Z,22.9
2017-04-29T09:48:38.347Z,22.87
2017-04-29T09:49:38.273Z,22.9
2017-04-29T09:50:38.213Z,22.94
2017-04-29T09:51:38.165Z,22.88
2017-04-29T09:52:38.088Z,22.81
2017-04-29T09:53:38.023Z,22.93
2017-04-29T09:54:37.961Z,22.88
2017-04-29T09:55:37.898Z,22.88
2017-04-29T09:56:37.840Z,22.84
2017-04-29T09:57:37.780Z,22.93
2017-04-29T09:58:37.712Z,22.84
2017-04-29T09:59:37.683Z,22.84
2017-04-29T10:00:37.587Z,22.83
2017-04-29T10:01:37.559Z,22.91
2017-04-29T10:02:37.461Z,22.9
2017-04-29T10:03:37.396Z,22.98
2017-04-29T10:04:37.332Z,22.98
2017-04-29T10:05:37.273Z,22.83
2017-04-29T10:06:37.208Z,22.9
2017-04-29T10:07:37.148Z,22.9
2017-04-29T10:08:37.080Z,22.88
2017-04-29T10:09:37.020Z,22.96
2017-04-29T10:10:36.956Z,22.87
2017-04-29T10:11:36.894Z,22.9
2017-04-29T10:12:36.831Z,22.91
2017-04-29T10:13:36.820Z,22.84
2017-04-29T10:14:36.707Z,22.93
2017-04-29T10:15:36.641Z,22.91
2017-04-29T10:16:36.581Z,22.91
2017-04-29T10:17:36.516Z,22.85
2017-04-29T10:18:36.462Z,22.81
2017-04-29T10:19:36.424Z,22.85
2017-04-29T10:20:36.328Z,22.9
2017-04-29T10:21:36.267Z,22.9
2017-04-29T10:22:36.202Z,22.93
2017-04-29T10:23:36.143Z,22.88
2017-04-29T10:24:36.077Z,22.93
2017-04-29T10:25:36.016Z,22.88
2017-04-29T10:26:35.956Z,22.76
2017-04-29T10:27:35.591Z,22.91
2017-04-29T10:28:35.829Z,22.83
2017-04-29T10:29:35.770Z,22.91
2017-04-29T10:30:35.701Z,22.84
2017-04-29T10:31:35.640Z,22.8
2017-04-29T10:32:35.576Z,22.85
2017-04-29T10:33:35.526Z,22.81
2017-04-29T10:34:35.452Z,22.93
2017-04-29T10:35:35.396Z,22.83
2017-04-29T10:36:35.325Z,22.84
2017-04-29T10:37:35.268Z,22.88
2017-04-29T10:38:34.905Z,22.93
2017-04-29T10:39:35.139Z,22.91
2017-04-29T10:40:35.090Z,22.83
2017-04-29T10:41:35.013Z,22.93
2017-04-29T10:42:34.653Z,22.87
2017-04-29T10:43:34.587Z,22.87
2017-04-29T10:44:34.824Z,22.88
2017-04-29T10:45:34.764Z,22.8
2017-04-29T10:46:34.399Z,22.84
2017-04-29T10:47:34.638Z,22.8
2017-04-29T10:48:34.576Z,22.8
2017-04-29T10:49:34.212Z,22.91
2017-04-29T10:50:34.147Z,22.78
2017-04-29T10:51:34.084Z,22.93
2017-04-29T10:52:34.023Z,22.9
2017-04-29T10:53:33.962Z,22.91
2017-04-29T10:54:34.213Z,22.87
2017-04-29T10:55:34.155Z,22.88
2017-04-29T10:56:34.070Z,22.93
2017-04-29T10:57:34.017Z,22.91
2017-04-29T10:58:33.946Z,22.91
2017-04-29T10:59:33.885Z,22.9
2017-04-29T11:00:34.038Z,22.96
2017-04-29T11:01:33.759Z,22.91
2017-04-29T11:02:33.695Z,22.75
2017-04-29T11:03:33.635Z,22.81
2017-04-29T11:04:33.573Z,22.91
2017-04-29T11:05:33.508Z,22.96
2017-04-29T11:06:33.444Z,22.8
2017-04-29T11:07:33.383Z,22.94
2017-04-29T11:08:33.322Z,22.96
2017-04-29T11:09:33.257Z,22.91
2017-04-29T11:10:33.194Z,22.9
2017-04-29T11:11:33.134Z,22.93
2017-04-29T11:12:32.775Z,22.91
2017-04-29T11:13:33.006Z,22.94
2017-04-29T11:14:32.642Z,22.91
2017-04-29T11:15:32.580Z,22.98
2017-04-29T11:16:32.819Z,22.93
2017-04-29T11:17:32.754Z,22.88
2017-04-29T11:18:32.399Z,22.96
2017-04-29T11:19:32.632Z,22.87
2017-04-29T11:20:32.569Z,22.9
2017-04-29T11:21:32.503Z,22.98
2017-04-29T11:22:32.447Z,22.96
2017-04-29T11:23:32.379Z,22.9
2017-04-29T11:24:32.317Z,22.9
2017-04-29T11:25:32.251Z,22.9
2017-04-29T11:26:31.895Z,22.94
2017-04-29T11:27:32.130Z,22.93
2017-04-29T11:28:31.772Z,22.91
2017-04-29T11:29:32.005Z,22.88
2017-04-29T11:30:31.940Z,22.87
2017-04-29T11:31:31.877Z,22.98
2017-04-29T11:32:31.814Z,22.93
2017-04-29T11:33:31.755Z,22.94
2017-04-29T11:34:31.690Z,22.99
2017-04-29T11:35:31.629Z,22.91
2017-04-29T11:36:31.565Z,22.96
2017-04-29T11:37:31.502Z,22.93
2017-04-29T11:38:31.438Z,22.93
2017-04-29T11:39:31.383Z,22.9
2017-04-29T11:40:31.315Z,22.88
2017-04-29T11:41:31.252Z,22.91
2017-04-29T11:42:31.196Z,22.93
2017-04-29T11:43:31.130Z,22.93
2017-04-29T11:44:31.066Z,22.9
2017-04-29T11:45:31.006Z,22.96
2017-04-29T11:46:30.942Z,22.98
2017-04-29T11:47:30.885Z,22.98
2017-04-29T11:48:30.816Z,22.98
2017-04-29T11:49:30.753Z,22.96
2017-04-29T11:50:30.688Z,22.98
2017-04-29T11:51:30.624Z,22.96
2017-04-29T11:52:30.563Z,22.9
2017-04-29T11:53:30.507Z,22.98
2017-04-29T11:54:30.439Z,22.93
2017-04-29T11:55:30.375Z,22.99
2017-04-29T11:56:30.314Z,22.93
2017-04-29T11:57:30.251Z,22.91
2017-04-29T11:58:30.202Z,22.91
2017-04-29T11:59:30.130Z,22.93
2017-04-29T12:00:30.064Z,22.99
2017-04-29T12:01:29.707Z,22.94
2017-04-29T12:02:29.936Z,22.88
2017-04-29T12:03:29.875Z,22.94
2017-04-29T12:04:29.808Z,22.88
2017-04-29T12:05:29.751Z,22.99
2017-04-29T12:06:29.386Z,22.98
2017-04-29T12:07:29.335Z,22.94
2017-04-29T12:08:29.562Z,22.91
2017-04-29T12:09:29.527Z,22.98
2017-04-29T12:10:29.435Z,22.98
2017-04-29T12:11:29.378Z,22.93
2017-04-29T12:12:29.315Z,22.99
2017-04-29T12:13:29.251Z,22.96
2017-04-29T12:14:29.187Z,22.99
2017-04-29T12:15:29.121Z,22.96
2017-04-29T12:16:29.062Z,22.93
2017-04-29T12:17:29.006Z,22.98
2017-04-29T12:18:28.933Z,22.93
2017-04-29T12:19:28.872Z,22.94
2017-04-29T12:20:28.810Z,23
2017-04-29T12:21:28.748Z,22.93
2017-04-29T12:22:28.697Z,22.96
2017-04-29T12:23:28.630Z,22.98
2017-04-29T12:24:28.570Z,22.9
2017-04-29T12:25:28.502Z,22.93
2017-04-29T12:26:28.431Z,22.99
2017-04-29T12:27:28.377Z,23
2017-04-29T12:28:28.013Z,22.91
2017-04-29T12:29:27.948Z,22.98
2017-04-29T12:30:28.182Z,22.96
2017-04-29T12:31:27.822Z,22.91
2017-04-29T12:32:27.758Z,22.96
2017-04-29T12:33:27.995Z,22.93
2017-04-29T12:34:27.937Z,22.98
2017-04-29T12:35:27.869Z,22.9
2017-04-29T12:36:27.816Z,22.99
2017-04-29T12:37:27.746Z,22.91
2017-04-29T12:38:27.388Z,22.96
2017-04-29T12:39:27.668Z,22.94
2017-04-29T12:40:27.558Z,22.98
2017-04-29T12:41:27.492Z,22.93
2017-04-29T12:42:27.432Z,23
2017-04-29T12:43:27.397Z,22.96
2017-04-29T12:44:27.308Z,22.9
2017-04-29T12:45:27.243Z,22.94
2017-04-29T12:46:26.892Z,22.93
2017-04-29T12:47:27.116Z,22.94
2017-04-29T12:48:27.058Z,22.94
2017-04-29T12:49:26.998Z,22.99
2017-04-29T12:50:26.936Z,22.9
2017-04-29T12:51:26.867Z,22.96
2017-04-29T12:52:26.806Z,22.91
2017-04-29T12:53:26.747Z,22.9
2017-04-29T12:54:26.696Z,22.9
2017-04-29T12:55:26.618Z,22.99
2017-04-29T12:56:26.558Z,22.9